createdAt,value
2023-04-05T00:02:02.195Z,93.60
2023-04-05T00:04:34.873Z,93.70
2023-04-05T00:07:08.398Z,94.20
2023-04-05T00:09:40.406Z,94.40
2023-04-05T00:12:12.274Z,95.00
2023-04-05T00:14:44.222Z,94.90
2023-04-05T00:17:17.071Z,94.90
2023-04-05T00:19:51.616Z,95.00
2023-04-05T00:22:26.223Z,95.10
2023-04-05T00:24:58.105Z,95.60
2023-04-05T00:27:30.052Z,95.40
2023-04-05T00:30:02.216Z,95.20
2023-04-05T00:32:34.319Z,94.90
2023-04-05T00:35:06.637Z,95.00
2023-04-05T00:37:38.587Z,94.80
2023-04-05T00:40:10.669Z,94.90
2023-04-05T00:42:42.564Z,94.70
2023-04-05T00:45:14.894Z,95.00
2023-04-05T00:47:46.888Z,95.40
2023-04-05T00:50:18.794Z,95.50
2023-04-05T00:52:51.297Z,95.20
2023-04-05T00:55:23.472Z,95.00
2023-04-05T00:57:58.886Z,94.90
2023-04-05T01:00:31.991Z,95.20
2023-04-05T01:03:05.052Z,95.30
2023-04-05T01:05:40.415Z,95.60
2023-04-05T01:08:28.856Z,95.60
2023-04-05T01:11:05.653Z,95.90
2023-04-05T01:13:37.581Z,95.80
2023-04-05T01:16:11.521Z,96.00
2023-04-05T01:18:46.665Z,96.10
2023-04-05T01:21:39.422Z,96.20
2023-04-05T01:24:17.319Z,96.30
2023-04-05T01:26:58.165Z,96.00
2023-04-05T01:29:50.480Z,96.10
2023-04-05T01:32:26.323Z,96.50
2023-04-05T01:35:05.068Z,96.60
2023-04-05T01:37:40.173Z,96.60
2023-04-05T01:40:12.681Z,97.00
2023-04-05T01:42:46.606Z,97.00
2023-04-05T01:45:18.535Z,96.90
2023-04-05T01:47:50.476Z,96.90
2023-04-05T01:50:24.173Z,96.80
2023-04-05T01:52:56.548Z,96.70
2023-04-05T01:55:28.430Z,96.60
2023-04-05T01:58:00.359Z,96.40
2023-04-05T02:00:32.690Z,96.40
2023-04-05T02:03:04.891Z,96.20
2023-04-05T02:05:37.114Z,96.30
2023-04-05T02:08:09.004Z,96.20
2023-04-05T02:10:41.438Z,96.10
2023-04-05T02:13:13.810Z,95.70
2023-04-05T02:15:50.371Z,94.60
2023-04-05T02:18:22.543Z,94.50
2023-04-05T02:21:01.069Z,94.50
2023-04-05T02:23:33.243Z,94.60
2023-04-05T02:26:05.512Z,93.10
2023-04-05T02:28:37.394Z,92.20
2023-04-05T02:31:12.766Z,90.50
2023-04-05T02:33:48.842Z,90.10
2023-04-05T02:36:22.239Z,90.10
2023-04-05T02:38:54.822Z,90.30
2023-04-05T02:41:27.136Z,89.60
2023-04-05T02:44:00.054Z,90.20
2023-04-05T02:46:35.324Z,90.40
2023-04-05T02:49:07.746Z,91.80
2023-04-05T02:51:41.576Z,91.90
2023-04-05T02:54:15.137Z,91.00
2023-04-05T02:56:50.017Z,91.50
2023-04-05T02:59:22.609Z,91.90
2023-04-05T03:01:54.593Z,92.10
2023-04-05T03:04:34.468Z,92.10
2023-04-05T03:07:08.107Z,92.60
2023-04-05T03:09:44.642Z,93.10
2023-04-05T03:12:16.587Z,93.30
2023-04-05T03:14:48.936Z,92.80
2023-04-05T03:17:26.440Z,93.40
2023-04-05T03:20:07.321Z,93.60
2023-04-05T03:22:39.886Z,93.60
2023-04-05T03:25:12.114Z,93.80
2023-04-05T03:27:52.919Z,94.10
2023-04-05T03:30:26.638Z,94.10
2023-04-05T03:33:04.683Z,94.10
2023-04-05T03:35:48.026Z,94.40
2023-04-05T03:38:20.595Z,94.70
2023-04-05T03:41:21.605Z,94.90
2023-04-05T03:43:53.480Z,94.90
2023-04-05T03:46:28.014Z,94.90
2023-04-05T03:49:00.924Z,94.90
2023-04-05T03:51:33.500Z,95.00
2023-04-05T03:54:05.715Z,95.10
2023-04-05T03:56:39.699Z,95.30
2023-04-05T03:59:19.267Z,95.00
2023-04-05T04:01:51.297Z,94.00
2023-04-05T04:04:24.939Z,93.90
2023-04-05T04:06:57.260Z,94.00
2023-04-05T04:09:31.615Z,93.50
2023-04-05T04:12:10.599Z,93.90
2023-04-05T04:14:50.258Z,94.00
2023-04-05T04:17:46.898Z,94.10
2023-04-05T04:20:39.290Z,94.40
2023-04-05T04:23:30.531Z,94.50
2023-04-05T04:26:26.921Z,94.60
2023-04-05T04:29:18.435Z,94.60
2023-04-05T04:32:07.007Z,94.30
2023-04-05T04:35:05.209Z,94.20
2023-04-05T04:38:00.670Z,94.50
2023-04-05T04:41:09.397Z,94.30
2023-04-05T04:43:44.742Z,94.70
2023-04-05T04:46:30.671Z,94.80
2023-04-05T04:49:10.615Z,94.60
2023-04-05T04:51:43.248Z,94.70
2023-04-05T04:54:20.790Z,94.90
2023-04-05T04:56:52.642Z,94.90
2023-04-05T04:59:24.545Z,94.70
2023-04-05T05:01:58.235Z,96.60
2023-04-05T05:04:31.397Z,96.30
2023-04-05T05:07:03.458Z,94.80
2023-04-05T05:09:37.888Z,94.80
2023-04-05T05:12:09.846Z,94.70
2023-04-05T05:14:41.678Z,94.90
2023-04-05T05:17:19.291Z,94.70
2023-04-05T05:19:51.792Z,94.60
2023-04-05T05:22:23.750Z,94.90
2023-04-05T05:24:55.728Z,94.80
2023-04-05T05:27:28.406Z,94.60
2023-04-05T05:30:01.208Z,94.60
2023-04-05T05:32:33.142Z,94.70
2023-04-05T05:35:05.615Z,94.90
2023-04-05T05:37:37.498Z,95.10
2023-04-05T05:40:13.405Z,95.00
2023-04-05T05:42:45.331Z,94.70
2023-04-05T05:45:17.210Z,94.90
2023-04-05T05:47:49.145Z,94.70
2023-04-05T05:50:21.004Z,94.50
2023-04-05T05:52:53.068Z,94.30
2023-04-05T05:55:25.042Z,94.20
2023-04-05T05:57:56.981Z,93.30
2023-04-05T06:00:28.879Z,93.20
2023-04-05T06:03:01.628Z,92.20
2023-04-05T06:05:33.787Z,92.30
2023-04-05T06:08:05.776Z,91.70
2023-04-05T06:10:38.097Z,92.20
2023-04-05T06:13:10.080Z,92.30
2023-04-05T06:15:43.626Z,91.90
2023-04-05T06:18:15.883Z,92.00
2023-04-05T06:20:47.980Z,91.00
2023-04-05T06:23:19.780Z,92.80
2023-04-05T06:25:51.615Z,92.40
2023-04-05T06:28:23.463Z,92.20
2023-04-05T06:30:58.684Z,88.60
2023-04-05T06:33:30.536Z,85.80
2023-04-05T06:36:02.445Z,86.20
2023-04-05T06:38:34.601Z,83.80
2023-04-05T06:41:06.568Z,84.00
2023-04-05T06:43:38.488Z,83.50
2023-04-05T06:46:12.624Z,84.00
2023-04-05T06:48:44.678Z,84.60
2023-04-05T06:51:16.746Z,83.30
2023-04-05T06:53:48.598Z,81.60
2023-04-05T06:56:20.546Z,81.30
2023-04-05T06:58:53.131Z,81.50
2023-04-05T07:01:26.312Z,82.20
2023-04-05T07:03:58.292Z,81.70
2023-04-05T07:06:31.944Z,80.90
2023-04-05T07:09:04.126Z,81.70
2023-04-05T07:11:36.518Z,81.10
2023-04-05T07:14:08.397Z,81.00
2023-04-05T07:16:40.535Z,80.50
2023-04-05T07:19:12.517Z,80.40
2023-04-05T07:21:44.567Z,80.40
2023-04-05T07:24:16.507Z,79.60
2023-04-05T07:26:48.416Z,79.70
2023-04-05T07:29:20.389Z,80.30
2023-04-05T07:31:52.387Z,80.70
2023-04-05T07:34:24.325Z,81.80
2023-04-05T07:36:56.228Z,80.50
2023-04-05T07:39:28.238Z,81.30
2023-04-05T07:42:00.252Z,81.20
2023-04-05T07:44:32.148Z,81.10
2023-04-05T07:47:04.113Z,81.20
2023-04-05T07:49:38.030Z,80.60
2023-04-05T07:52:09.933Z,80.40
2023-04-05T07:54:43.407Z,81.00
2023-04-05T07:57:21.822Z,80.90
2023-04-05T07:59:55.772Z,81.00
2023-04-05T08:02:27.788Z,79.90
2023-04-05T08:05:00.001Z,80.90
2023-04-05T08:07:32.025Z,79.70
2023-04-05T08:10:04.963Z,80.00
2023-04-05T08:12:38.888Z,79.00
2023-04-05T08:15:11.402Z,78.40
2023-04-05T08:17:43.272Z,78.90
2023-04-05T08:20:15.178Z,79.90
2023-04-05T08:22:47.356Z,78.80
2023-04-05T08:25:19.365Z,78.30
2023-04-05T08:27:51.303Z,78.20
2023-04-05T08:30:23.453Z,78.30
2023-04-05T08:32:55.327Z,77.50
2023-04-05T08:35:27.306Z,77.80
2023-04-05T08:37:59.160Z,77.30
2023-04-05T08:40:42.759Z,78.00
2023-04-05T08:43:34.191Z,77.90
2023-04-05T08:46:10.137Z,78.70
2023-04-05T08:48:42.386Z,79.60
2023-04-05T08:51:18.060Z,79.60
2023-04-05T08:53:50.669Z,79.20
2023-04-05T08:56:27.994Z,79.10
2023-04-05T08:59:08.411Z,77.80
2023-04-05T09:01:44.093Z,77.20
2023-04-05T09:04:28.186Z,78.50
2023-04-05T09:07:04.187Z,78.10
2023-04-05T09:09:37.842Z,78.00
2023-04-05T09:12:09.895Z,77.90
2023-04-05T09:14:43.085Z,79.60
2023-04-05T09:17:18.196Z,79.90
2023-04-05T09:19:50.497Z,79.00
2023-04-05T09:22:23.289Z,78.00
2023-04-05T09:24:55.376Z,78.40
2023-04-05T09:27:29.015Z,79.70
2023-04-05T09:30:22.158Z,79.60
2023-04-05T09:32:57.492Z,80.40
2023-04-05T09:35:31.877Z,78.50
2023-04-05T09:38:08.037Z,78.40
2023-04-05T09:40:45.776Z,78.40
2023-04-05T09:43:41.351Z,77.00
2023-04-05T09:46:42.489Z,75.60
2023-04-05T09:49:14.601Z,74.70
2023-04-05T09:51:47.033Z,73.70
2023-04-05T09:54:19.050Z,72.60
2023-04-05T09:56:57.626Z,75.20
2023-04-05T09:59:29.996Z,76.40
2023-04-05T10:02:03.733Z,77.30
2023-04-05T10:04:43.611Z,77.00
2023-04-05T10:07:17.347Z,76.10
2023-04-05T10:09:49.297Z,76.00
2023-04-05T10:12:27.170Z,76.80
2023-04-05T10:14:59.805Z,77.50
2023-04-05T10:17:39.633Z,75.90
2023-04-05T10:20:15.699Z,75.90
2023-04-05T10:23:22.929Z,77.80
2023-04-05T10:26:08.094Z,78.20
2023-04-05T10:28:47.562Z,77.40
2023-04-05T10:31:37.815Z,76.50
2023-04-05T10:34:41.072Z,76.40
2023-04-05T10:37:30.408Z,76.50
2023-04-05T10:40:04.605Z,75.60
2023-04-05T10:42:46.445Z,76.30
2023-04-05T10:45:22.345Z,78.40
2023-04-05T10:48:30.442Z,74.50
2023-04-05T10:51:03.744Z,75.80
2023-04-05T10:53:38.020Z,78.60
2023-04-05T10:56:11.593Z,77.60
2023-04-05T10:58:44.753Z,77.50
2023-04-05T11:01:22.685Z,75.90
2023-04-05T11:03:56.042Z,75.70
2023-04-05T11:06:33.290Z,76.30
2023-04-05T11:09:15.353Z,75.30
2023-04-05T11:11:52.497Z,76.90
2023-04-05T11:14:28.226Z,77.40
2023-04-05T11:17:00.547Z,77.80
2023-04-05T11:19:47.534Z,77.70
2023-04-05T11:22:28.425Z,77.30
2023-04-05T11:25:03.414Z,76.20
2023-04-05T11:27:41.152Z,74.70
2023-04-05T11:30:13.441Z,73.20
2023-04-05T11:32:46.227Z,74.80
2023-04-05T11:35:24.905Z,74.90
2023-04-05T11:38:02.546Z,75.30
2023-04-05T11:40:37.029Z,75.10
2023-04-05T11:43:11.303Z,77.10
2023-04-05T11:45:44.043Z,78.10
2023-04-05T11:48:16.253Z,74.70
2023-04-05T11:50:50.830Z,74.30
2023-04-05T11:53:23.058Z,75.30
2023-04-05T11:55:56.282Z,77.60
2023-04-05T11:58:28.614Z,75.30
2023-04-05T12:01:07.607Z,74.80
2023-04-05T12:03:39.583Z,74.40
2023-04-05T12:06:11.523Z,72.70
2023-04-05T12:08:51.181Z,72.80
2023-04-05T12:11:27.922Z,72.80
2023-04-05T12:14:01.865Z,74.30
2023-04-05T12:16:34.051Z,74.90
2023-04-05T12:19:05.988Z,75.20
2023-04-05T12:21:38.048Z,75.40
2023-04-05T12:24:10.129Z,74.80
2023-04-05T12:26:42.332Z,75.10
2023-04-05T12:29:14.299Z,74.60
2023-04-05T12:31:47.275Z,75.20
2023-04-05T12:34:25.957Z,75.30
2023-04-05T12:37:00.702Z,75.40
2023-04-05T12:39:34.230Z,73.40
2023-04-05T12:42:06.309Z,74.00
2023-04-05T12:44:38.195Z,72.60
2023-04-05T12:47:11.116Z,74.60
2023-04-05T12:49:42.989Z,74.30
2023-04-05T12:52:21.064Z,74.80
2023-04-05T12:54:55.981Z,74.80
2023-04-05T12:57:34.110Z,74.20
2023-04-05T13:00:07.122Z,73.30
2023-04-05T13:02:39.142Z,72.40
2023-04-05T13:05:11.037Z,73.10
2023-04-05T13:07:42.870Z,72.70
2023-04-05T13:10:15.390Z,71.50
2023-04-05T13:12:48.134Z,72.50
2023-04-05T13:15:20.793Z,72.30
2023-04-05T13:17:55.572Z,72.80
2023-04-05T13:20:29.007Z,72.80
2023-04-05T13:23:01.467Z,73.00
2023-04-05T13:25:33.910Z,73.20
2023-04-05T13:28:06.157Z,72.30
2023-04-05T13:30:38.450Z,72.20
2023-04-05T13:33:10.526Z,71.40
2023-04-05T13:35:42.875Z,71.40
2023-04-05T13:38:14.977Z,70.80
2023-04-05T13:40:46.892Z,70.00
2023-04-05T13:43:18.850Z,73.90
2023-04-05T13:45:51.024Z,73.20
2023-04-05T13:48:23.075Z,72.80
2023-04-05T13:50:54.943Z,73.40
2023-04-05T13:53:28.642Z,73.40
2023-04-05T13:56:00.805Z,74.10
2023-04-05T13:58:32.685Z,72.80
2023-04-05T14:01:04.547Z,72.20
2023-04-05T14:03:36.576Z,71.40
2023-04-05T14:06:08.692Z,72.00
2023-04-05T14:08:40.601Z,73.70
2023-04-05T14:11:12.759Z,73.50
2023-04-05T14:13:44.668Z,72.80
2023-04-05T14:16:16.652Z,72.20
2023-04-05T14:18:48.592Z,72.70
2023-04-05T14:21:20.900Z,74.10
2023-04-05T14:23:56.971Z,74.50
2023-04-05T14:26:29.952Z,73.60
2023-04-05T14:29:02.002Z,73.40
2023-04-05T14:31:34.032Z,73.40
2023-04-05T14:34:06.231Z,74.20
2023-04-05T14:36:38.437Z,73.60
2023-04-05T14:39:10.664Z,74.30
2023-04-05T14:41:42.720Z,74.00
2023-04-05T14:44:14.605Z,74.40
2023-04-05T14:46:46.549Z,73.00
2023-04-05T14:49:18.615Z,73.00
2023-04-05T14:51:50.747Z,71.80
2023-04-05T14:54:22.692Z,70.90
2023-04-05T14:56:54.657Z,71.60
2023-04-05T14:59:26.729Z,71.50
2023-04-05T15:01:58.746Z,71.60
2023-04-05T15:04:30.978Z,72.30
2023-04-05T15:07:02.918Z,73.00
2023-04-05T15:09:36.002Z,72.50
2023-04-05T15:12:07.957Z,73.10
2023-04-05T15:14:39.986Z,74.30
2023-04-05T15:17:12.532Z,74.40
2023-04-05T15:19:44.552Z,73.80
2023-04-05T15:22:17.722Z,73.50
2023-04-05T15:24:49.853Z,73.20
2023-04-05T15:27:21.866Z,73.80
2023-04-05T15:29:53.962Z,72.90
2023-04-05T15:32:26.080Z,72.80
2023-04-05T15:34:58.075Z,73.30
2023-04-05T15:37:30.063Z,73.20
2023-04-05T15:40:03.593Z,72.20
2023-04-05T15:42:36.126Z,72.50
2023-04-05T15:45:08.722Z,72.30
2023-04-05T15:47:40.829Z,72.80
2023-04-05T15:50:12.932Z,72.20
2023-04-05T15:52:44.832Z,72.70
2023-04-05T15:55:16.891Z,73.90
2023-04-05T15:57:53.687Z,72.60
2023-04-05T16:00:27.637Z,72.80
2023-04-05T16:03:00.611Z,73.50
2023-04-05T16:05:32.772Z,73.80
2023-04-05T16:08:04.783Z,74.00
2023-04-05T16:10:37.134Z,74.00
2023-04-05T16:13:09.111Z,73.20
2023-04-05T16:15:41.455Z,73.80
2023-04-05T16:18:14.477Z,73.70
2023-04-05T16:20:46.905Z,74.10
2023-04-05T16:23:18.979Z,73.90
2023-04-05T16:25:51.134Z,74.00
2023-04-05T16:28:23.150Z,73.30
2023-04-05T16:30:56.067Z,72.90
2023-04-05T16:33:28.117Z,73.20
2023-04-05T16:36:00.240Z,72.70
2023-04-05T16:38:32.316Z,73.00
2023-04-05T16:41:04.430Z,73.70
2023-04-05T16:43:41.660Z,73.40
2023-04-05T16:46:14.016Z,73.70
2023-04-05T16:48:46.229Z,74.50
2023-04-05T16:51:18.976Z,74.90
2023-04-05T16:53:51.227Z,74.80
2023-04-05T16:56:28.649Z,74.50
2023-04-05T16:59:05.740Z,74.60
2023-04-05T17:01:39.051Z,74.80
2023-04-05T17:04:11.037Z,78.00
2023-04-05T17:06:43.399Z,76.40
2023-04-05T17:09:19.398Z,76.80
2023-04-05T17:11:57.679Z,76.30
2023-04-05T17:14:29.710Z,73.80
2023-04-05T17:17:05.093Z,74.00
2023-04-05T17:19:37.515Z,74.50
2023-04-05T17:22:10.007Z,72.10
2023-04-05T17:24:42.509Z,71.70
2023-04-05T17:27:14.601Z,70.80
2023-04-05T17:29:46.479Z,69.40
2023-04-05T17:32:18.550Z,69.70
2023-04-05T17:34:52.974Z,69.30
2023-04-05T17:37:24.911Z,69.90
2023-04-05T17:39:56.786Z,69.90
2023-04-05T17:42:31.072Z,70.30
2023-04-05T17:45:11.035Z,70.70
2023-04-05T17:47:45.127Z,71.10
2023-04-05T17:50:17.335Z,72.00
2023-04-05T17:52:49.584Z,72.20
2023-04-05T17:55:21.788Z,71.80
2023-04-05T17:57:56.790Z,72.40
2023-04-05T18:00:31.408Z,72.50
2023-04-05T18:03:07.607Z,73.00
2023-04-05T18:05:40.169Z,73.10
2023-04-05T18:08:12.141Z,73.10
2023-04-05T18:10:44.377Z,73.70
2023-04-05T18:13:16.475Z,74.20
2023-04-05T18:15:59.175Z,74.80
2023-04-05T18:18:31.543Z,74.30
2023-04-05T18:21:06.369Z,74.90
2023-04-05T18:23:38.363Z,74.80
2023-04-05T18:26:10.604Z,75.50
2023-04-05T18:28:42.556Z,75.10
2023-04-05T18:31:15.805Z,75.90
2023-04-05T18:33:47.797Z,76.90
2023-04-05T18:36:19.741Z,76.90
2023-04-05T18:39:09.724Z,76.40
2023-04-05T18:41:41.805Z,75.60
2023-04-05T18:44:14.120Z,76.80
2023-04-05T18:46:46.200Z,77.40
2023-04-05T18:49:19.123Z,78.40
2023-04-05T18:51:51.269Z,78.10
2023-04-05T18:54:23.402Z,78.00
2023-04-05T18:56:56.592Z,78.00
2023-04-05T18:59:29.544Z,80.80
2023-04-05T19:02:01.679Z,80.70
2023-04-05T19:04:34.187Z,79.30
2023-04-05T19:07:06.352Z,79.10
2023-04-05T19:09:41.814Z,79.20
2023-04-05T19:12:13.998Z,79.40
2023-04-05T19:14:46.105Z,79.70
2023-04-05T19:17:18.132Z,80.10
2023-04-05T19:19:50.049Z,80.20
2023-04-05T19:22:22.524Z,80.70
2023-04-05T19:24:54.763Z,80.50
2023-04-05T19:27:30.802Z,81.20
2023-04-05T19:30:06.886Z,81.80
2023-04-05T19:32:38.935Z,82.10
2023-04-05T19:35:11.294Z,82.20
2023-04-05T19:37:43.319Z,82.10
2023-04-05T19:40:16.581Z,82.30
2023-04-05T19:42:48.757Z,82.60
2023-04-05T19:45:26.489Z,85.10
2023-04-05T19:48:00.826Z,83.70
2023-04-05T19:50:48.221Z,84.20
2023-04-05T19:53:43.417Z,84.10
2023-04-05T19:56:31.255Z,84.60
2023-04-05T19:59:24.500Z,83.90
2023-04-05T20:02:00.419Z,84.20
2023-04-05T20:04:38.926Z,84.30
2023-04-05T20:07:11.146Z,84.30
2023-04-05T20:09:44.150Z,85.70
2023-04-05T20:12:21.881Z,85.90
2023-04-05T20:14:53.923Z,84.60
2023-04-05T20:17:28.426Z,85.00
2023-04-05T20:20:01.615Z,85.40
2023-04-05T20:22:33.712Z,85.60
2023-04-05T20:25:44.088Z,85.10
2023-04-05T20:28:42.007Z,85.30
2023-04-05T20:31:25.948Z,85.30
2023-04-05T20:34:15.323Z,85.20
2023-04-05T20:36:52.558Z,85.20
2023-04-05T20:39:25.398Z,85.40
2023-04-05T20:41:57.857Z,85.30
2023-04-05T20:44:29.970Z,85.50
2023-04-05T20:47:01.944Z,85.70
2023-04-05T20:49:34.528Z,85.90
2023-04-05T20:52:08.814Z,86.10
2023-04-05T20:54:41.138Z,86.60
2023-04-05T20:57:13.207Z,86.70
2023-04-05T20:59:45.355Z,86.60
2023-04-05T21:02:17.522Z,86.50
2023-04-05T21:04:50.711Z,86.30
2023-04-05T21:07:22.891Z,86.00
2023-04-05T21:09:57.822Z,86.30
2023-04-05T21:12:30.065Z,86.70
2023-04-05T21:15:02.077Z,86.60
2023-04-05T21:17:34.128Z,86.00
2023-04-05T21:20:06.668Z,85.90
2023-04-05T21:22:38.808Z,86.30
2023-04-05T21:25:11.024Z,86.50
2023-04-05T21:27:43.273Z,86.70
2023-04-05T21:30:15.572Z,87.60
2023-04-05T21:32:47.637Z,87.10
2023-04-05T21:35:21.005Z,87.40
2023-04-05T21:37:53.085Z,87.30
2023-04-05T21:40:24.986Z,87.30
2023-04-05T21:42:57.533Z,87.40
2023-04-05T21:45:29.522Z,87.10
2023-04-05T21:48:01.622Z,87.00
2023-04-05T21:50:33.724Z,87.20
2023-04-05T21:53:07.403Z,87.20
2023-04-05T21:55:39.410Z,87.30
2023-04-05T21:58:11.394Z,87.30
2023-04-05T22:00:43.371Z,87.40
2023-04-05T22:03:15.830Z,87.70
2023-04-05T22:05:47.849Z,87.30
2023-04-05T22:08:19.768Z,87.70
2023-04-05T22:10:52.204Z,87.80
2023-04-05T22:13:24.216Z,87.30
2023-04-05T22:15:56.264Z,87.10
2023-04-05T22:18:29.057Z,87.00
2023-04-05T22:21:01.191Z,87.10
2023-04-05T22:23:33.100Z,87.30
2023-04-05T22:26:05.263Z,87.30
2023-04-05T22:28:37.212Z,87.60
2023-04-05T22:31:09.276Z,87.60
2023-04-05T22:33:41.442Z,87.60
2023-04-05T22:36:13.574Z,87.60
2023-04-05T22:38:45.850Z,88.20
2023-04-05T22:41:18.036Z,87.90
2023-04-05T22:43:50.086Z,87.90
2023-04-05T22:46:22.136Z,87.90
2023-04-05T22:48:55.202Z,88.00
2023-04-05T22:51:27.599Z,87.70
2023-04-05T22:53:59.665Z,87.70
2023-04-05T22:56:32.077Z,87.90
2023-04-05T22:59:04.010Z,87.80
2023-04-05T23:01:36.120Z,87.80
2023-04-05T23:04:08.970Z,88.10
2023-04-05T23:06:41.162Z,88.00
2023-04-05T23:09:14.691Z,87.80
2023-04-05T23:11:46.719Z,87.90
2023-04-05T23:14:18.678Z,88.30
2023-04-05T23:16:50.656Z,88.30
2023-04-05T23:19:22.634Z,88.40
2023-04-05T23:21:55.721Z,88.80
2023-04-05T23:24:27.616Z,89.30
2023-04-05T23:26:59.524Z,89.20
2023-04-05T23:29:31.423Z,89.20
2023-04-05T23:32:03.380Z,88.80
2023-04-05T23:34:35.497Z,88.80
2023-04-05T23:37:07.461Z,88.80
2023-04-05T23:39:39.572Z,89.00
2023-04-05T23:42:13.562Z,88.90
2023-04-05T23:44:45.972Z,89.00
2023-04-05T23:47:17.944Z,89.20
2023-04-05T23:49:49.914Z,89.20
2023-04-05T23:52:21.981Z,89.20
2023-04-05T23:54:53.889Z,89.10
2023-04-05T23:57:26.038Z,89.00
2023-04-05T23:59:57.944Z,88.70
